sensor_id;sensor_type;location;lat;lon;timestamp;pressure;altitude;pressure_sealevel;temperature;humidity
33404;BME280;19751;40.274;18.268;2023-02-28T00:01:14;101182.31;;;13.21;100.00
33404;BME280;19751;40.274;18.268;2023-02-28T00:03:40;101187.94;;;13.19;100.00
33404;BME280;19751;40.274;18.268;2023-02-28T00:06:07;101183.13;;;13.22;100.00
33404;BME280;19751;40.274;18.268;2023-02-28T00:08:35;101181.25;;;13.22;100.00
33404;BME280;19751;40.274;18.268;2023-02-28T00:11:05;101180.44;;;13.22;100.00
33404;BME280;19751;40.274;18.268;2023-02-28T00:13:34;101184.19;;;13.21;100.00
33404;BME280;19751;40.274;18.268;2023-02-28T00:16:02;101192.50;;;13.19;100.00
33404;BME280;19751;40.274;18.268;2023-02-28T00:18:28;101198.75;;;13.19;100.00
33404;BME280;19751;40.274;18.268;2023-02-28T00:20:53;101194.16;;;13.20;100.00
33404;BME280;19751;40.274;18.268;2023-02-28T00:23:19;101202.91;;;13.22;100.00
33404;BME280;19751;40.274;18.268;2023-02-28T00:25:45;101212.75;;;13.23;100.00
33404;BME280;19751;40.274;18.268;2023-02-28T00:28:10;101204.63;;;13.23;100.00
33404;BME280;19751;40.274;18.268;2023-02-28T00:30:35;101209.00;;;13.24;100.00
33404;BME280;19751;40.274;18.268;2023-02-28T00:33:01;101214.03;;;13.27;100.00
33404;BME280;19751;40.274;18.268;2023-02-28T00:35:26;101208.41;;;13.29;100.00
33404;BME280;19751;40.274;18.268;2023-02-28T00:37:52;101221.13;;;13.28;100.00
33404;BME280;19751;40.274;18.268;2023-02-28T00:40:17;101221.13;;;13.28;100.00
33404;BME280;19751;40.274;18.268;2023-02-28T00:42:43;101224.84;;;13.27;100.00
33404;BME280;19751;40.274;18.268;2023-02-28T00:45:08;101228.56;;;13.26;100.00
33404;BME280;19751;40.274;18.268;2023-02-28T00:47:34;101233.81;;;13.28;100.00
33404;BME280;19751;40.274;18.268;2023-02-28T00:49:59;101230.91;;;13.29;100.00
33404;BME280;19751;40.274;18.268;2023-02-28T00:52:25;101235.09;;;13.32;100.00
33404;BME280;19751;40.274;18.268;2023-02-28T00:54:51;101232.38;;;13.32;100.00
33404;BME280;19751;40.274;18.268;2023-02-28T00:57:16;101228.63;;;13.33;100.00
33404;BME280;19751;40.274;18.268;2023-02-28T00:59:42;101227.81;;;13.32;100.00
33404;BME280;19751;40.274;18.268;2023-02-28T01:02:07;101233.00;;;13.34;100.00
33404;BME280;19751;40.274;18.268;2023-02-28T01:04:33;101227.59;;;13.34;100.00
33404;BME280;19751;40.274;18.268;2023-02-28T01:06:58;101224.72;;;13.35;100.00
33404;BME280;19751;40.274;18.268;2023-02-28T01:09:24;101221.59;;;13.38;100.00
33404;BME280;19751;40.274;18.268;2023-02-28T01:11:49;101224.50;;;13.37;100.00
33404;BME280;19751;40.274;18.268;2023-02-28T01:14:17;101219.94;;;13.37;100.00
33404;BME280;19751;40.274;18.268;2023-02-28T01:16:43;101227.84;;;13.39;100.00
33404;BME280;19751;40.274;18.268;2023-02-28T01:19:09;101225.34;;;13.37;100.00
33404;BME280;19751;40.274;18.268;2023-02-28T01:21:34;101226.19;;;13.38;100.00
33404;BME280;19751;40.274;18.268;2023-02-28T01:24:01;101222.25;;;13.40;100.00
33404;BME280;19751;40.274;18.268;2023-02-28T01:26:26;101227.47;;;13.42;100.00
33404;BME280;19751;40.274;18.268;2023-02-28T01:28:52;101220.16;;;13.42;100.00
33404;BME280;19751;40.274;18.268;2023-02-28T01:31:18;101216.44;;;13.43;100.00
33404;BME280;19751;40.274;18.268;2023-02-28T01:33:45;101219.13;;;13.43;100.00
33404;BME280;19751;40.274;18.268;2023-02-28T01:36:20;101212.50;;;13.46;100.00
33404;BME280;19751;40.274;18.268;2023-02-28T01:38:46;101218.94;;;13.45;100.00
33404;BME280;19751;40.274;18.268;2023-02-28T01:41:32;101217.91;;;13.46;100.00
33404;BME280;19751;40.274;18.268;2023-02-28T01:44:53;101222.50;;;13.46;100.00
33404;BME280;19751;40.274;18.268;2023-02-28T01:46:51;101224.38;;;13.45;100.00
33404;BME280;19751;40.274;18.268;2023-02-28T01:49:17;101221.44;;;13.47;100.00
33404;BME280;19751;40.274;18.268;2023-02-28T01:51:44;101229.56;;;13.47;100.00
33404;BME280;19751;40.274;18.268;2023-02-28T01:54:18;101224.53;;;13.43;100.00
33404;BME280;19751;40.274;18.268;2023-02-28T01:57:06;101220.00;;;13.44;100.00
33404;BME280;19751;40.274;18.268;2023-02-28T01:59:36;101228.94;;;13.45;100.00
33404;BME280;19751;40.274;18.268;2023-02-28T02:02:05;101230.63;;;13.46;100.00
33404;BME280;19751;40.274;18.268;2023-02-28T02:04:44;101227.91;;;13.46;100.00
33404;BME280;19751;40.274;18.268;2023-02-28T02:07:13;101227.06;;;13.45;100.00
33404;BME280;19751;40.274;18.268;2023-02-28T02:09:39;101227.91;;;13.46;100.00
33404;BME280;19751;40.274;18.268;2023-02-28T02:12:23;101236.66;;;13.48;100.00
33404;BME280;19751;40.274;18.268;2023-02-28T02:15:34;101224.16;;;13.47;100.00
33404;BME280;19751;40.274;18.268;2023-02-28T02:21:07;101233.31;;;13.46;100.00
33404;BME280;19751;40.274;18.268;2023-02-28T02:29:34;101231.19;;;13.41;100.00
33404;BME280;19751;40.274;18.268;2023-02-28T02:40:00;101219.72;;;13.39;100.00
33404;BME280;19751;40.274;18.268;2023-02-28T02:42:37;101217.84;;;13.39;100.00
33404;BME280;19751;40.274;18.268;2023-02-28T02:45:11;101214.53;;;13.37;100.00
33404;BME280;19751;40.274;18.268;2023-02-28T02:47:41;101208.91;;;13.39;100.00
33404;BME280;19751;40.274;18.268;2023-02-28T02:50:12;101210.78;;;13.38;100.00
33404;BME280;19751;40.274;18.268;2023-02-28T02:52:44;101207.81;;;13.33;100.00
33404;BME280;19751;40.274;18.268;2023-02-28T02:55:13;101207.81;;;13.33;100.00
33404;BME280;19751;40.274;18.268;2023-02-28T02:57:53;101207.19;;;13.31;100.00
33404;BME280;19751;40.274;18.268;2023-02-28T03:00:25;101211.75;;;13.31;100.00
33404;BME280;19751;40.274;18.268;2023-02-28T03:02:52;101207.19;;;13.31;100.00
33404;BME280;19751;40.274;18.268;2023-02-28T03:05:44;101206.31;;;13.24;100.00
33404;BME280;19751;40.274;18.268;2023-02-28T03:08:11;101213.47;;;13.17;100.00
33404;BME280;19751;40.274;18.268;2023-02-28T03:10:45;101200.75;;;13.11;100.00
33404;BME280;19751;40.274;18.268;2023-02-28T03:16:35;101212.91;;;13.00;100.00
33404;BME280;19751;40.274;18.268;2023-02-28T03:26:58;101221.41;;;12.97;100.00
33404;BME280;19751;40.274;18.268;2023-02-28T03:29:34;101232.06;;;12.99;100.00
33404;BME280;19751;40.274;18.268;2023-02-28T03:34:37;101227.13;;;13.09;100.00
33404;BME280;19751;40.274;18.268;2023-02-28T03:37:11;101227.97;;;13.09;100.00
33404;BME280;19751;40.274;18.268;2023-02-28T03:39:54;101229.41;;;13.05;100.00
33404;BME280;19751;40.274;18.268;2023-02-28T03:42:24;101222.31;;;13.04;100.00
33404;BME280;19751;40.274;18.268;2023-02-28T03:44:57;101225.84;;;13.05;100.00
33404;BME280;19751;40.274;18.268;2023-02-28T03:47:29;101219.22;;;13.07;100.00
33404;BME280;19751;40.274;18.268;2023-02-28T03:50:00;101236.28;;;13.08;100.00
33404;BME280;19751;40.274;18.268;2023-02-28T03:52:31;101225.47;;;13.08;100.00
33404;BME280;19751;40.274;18.268;2023-02-28T03:55:02;101228.81;;;13.10;100.00
33404;BME280;19751;40.274;18.268;2023-02-28T04:00:30;101226.38;;;13.15;100.00
33404;BME280;19751;40.274;18.268;2023-02-28T04:02:58;101234.50;;;13.15;100.00
33404;BME280;19751;40.274;18.268;2023-02-28T04:05:24;101236.16;;;13.16;100.00
33404;BME280;19751;40.274;18.268;2023-02-28T04:07:50;101227.22;;;13.15;100.00
33404;BME280;19751;40.274;18.268;2023-02-28T04:10:16;101231.78;;;13.15;100.00
33404;BME280;19751;40.274;18.268;2023-02-28T04:12:42;101229.72;;;13.17;100.00
33404;BME280;19751;40.274;18.268;2023-02-28T04:15:08;101228.69;;;13.18;100.00
33404;BME280;19751;40.274;18.268;2023-02-28T04:17:33;101231.00;;;13.21;100.00
33404;BME280;19751;40.274;18.268;2023-02-28T04:19:59;101229.13;;;13.22;100.00
33404;BME280;19751;40.274;18.268;2023-02-28T04:22:24;101231.00;;;13.21;100.00
33404;BME280;19751;40.274;18.268;2023-02-28T04:24:52;101232.66;;;13.22;100.00
33404;BME280;19751;40.274;18.268;2023-02-28T04:27:20;101226.41;;;13.22;100.00
33404;BME280;19751;40.274;18.268;2023-02-28T04:29:46;101232.66;;;13.22;100.00
33404;BME280;19751;40.274;18.268;2023-02-28T04:32:12;101230.38;;;13.19;100.00
33404;BME280;19751;40.274;18.268;2023-02-28T04:34:37;101233.25;;;13.17;100.00
33404;BME280;19751;40.274;18.268;2023-02-28T04:37:03;101228.88;;;13.16;100.00
33404;BME280;19751;40.274;18.268;2023-02-28T04:39:29;101248.84;;;13.15;100.00
33404;BME280;19751;40.274;18.268;2023-02-28T04:41:55;101247.38;;;13.13;100.00
33404;BME280;19751;40.274;18.268;2023-02-28T04:44:22;101238.41;;;13.12;100.00
33404;BME280;19751;40.274;18.268;2023-02-28T04:46:48;101248.41;;;13.12;100.00
33404;BME280;19751;40.274;18.268;2023-02-28T04:49:14;101243.00;;;13.12;100.00
33404;BME280;19751;40.274;18.268;2023-02-28T04:51:40;101241.31;;;13.11;100.00
33404;BME280;19751;40.274;18.268;2023-02-28T04:54:06;101243.38;;;13.09;100.00
33404;BME280;19751;40.274;18.268;2023-02-28T04:56:32;101242.53;;;13.08;100.00
33404;BME280;19751;40.274;18.268;2023-02-28T04:58:58;101243.75;;;13.06;100.00
33404;BME280;19751;40.274;18.268;2023-02-28T05:01:29;101250.84;;;13.07;100.00
33404;BME280;19751;40.274;18.268;2023-02-28T05:03:57;101250.84;;;13.07;100.00
33404;BME280;19751;40.274;18.268;2023-02-28T05:06:24;101246.66;;;13.04;100.00
33404;BME280;19751;40.274;18.268;2023-02-28T05:08:56;101250.41;;;13.03;100.00
33404;BME280;19751;40.274;18.268;2023-02-28T05:13:48;101245.38;;;13.00;100.00
33404;BME280;19751;40.274;18.268;2023-02-28T05:16:14;101240.78;;;13.01;100.00
33404;BME280;19751;40.274;18.268;2023-02-28T05:18:40;101248.28;;;12.99;100.00
33404;BME280;19751;40.274;18.268;2023-02-28T05:21:23;101254.06;;;12.96;100.00
33404;BME280;19751;40.274;18.268;2023-02-28T05:23:52;101256.97;;;12.94;100.00
33404;BME280;19751;40.274;18.268;2023-02-28T05:26:18;101265.09;;;12.94;100.00
33404;BME280;19751;40.274;18.268;2023-02-28T05:28:43;101260.06;;;12.91;100.00
33404;BME280;19751;40.274;18.268;2023-02-28T05:31:12;101265.63;;;12.89;100.00
33404;BME280;19751;40.274;18.268;2023-02-28T05:33:40;101272.06;;;12.88;100.00
33404;BME280;19751;40.274;18.268;2023-02-28T05:36:06;101274.16;;;12.86;100.00
33404;BME280;19751;40.274;18.268;2023-02-28T05:38:32;101268.75;;;12.86;100.00
33404;BME280;19751;40.274;18.268;2023-02-28T05:40:57;101279.56;;;12.86;100.00
33404;BME280;19751;40.274;18.268;2023-02-28T05:43:24;101281.44;;;12.86;100.00
33404;BME280;19751;40.274;18.268;2023-02-28T05:45:51;101276.03;;;12.86;100.00
33404;BME280;19751;40.274;18.268;2023-02-28T05:48:17;101285.34;;;12.83;100.00
33404;BME280;19751;40.274;18.268;2023-02-28T05:50:43;101287.78;;;12.78;100.00
33404;BME280;19751;40.274;18.268;2023-02-28T05:53:11;101272.41;;;12.79;100.00
33404;BME280;19751;40.274;18.268;2023-02-28T05:55:36;101269.50;;;12.80;100.00
33404;BME280;19751;40.274;18.268;2023-02-28T05:58:03;101261.38;;;12.80;100.00
33404;BME280;19751;40.274;18.268;2023-02-28T06:00:28;101265.13;;;12.79;100.00
33404;BME280;19751;40.274;18.268;2023-02-28T06:02:54;101264.28;;;12.79;100.00
33404;BME280;19751;40.274;18.268;2023-02-28T06:05:23;101277.03;;;12.85;100.00
33404;BME280;19751;40.274;18.268;2023-02-28T06:07:49;101271.69;;;12.91;100.00
33404;BME280;19751;40.274;18.268;2023-02-28T06:10:15;101279.81;;;12.91;100.00
33404;BME280;19751;40.274;18.268;2023-02-28T06:12:41;101287.53;;;12.94;100.00
33404;BME280;19751;40.274;18.268;2023-02-28T06:15:10;101288.63;;;13.00;100.00
33404;BME280;19751;40.274;18.268;2023-02-28T06:17:36;101287.22;;;13.04;100.00
33404;BME280;19751;40.274;18.268;2023-02-28T06:20:02;101287.88;;;13.06;100.00
33404;BME280;19751;40.274;18.268;2023-02-28T06:22:28;101291.13;;;13.02;100.00
33404;BME280;19751;40.274;18.268;2023-02-28T06:24:53;101287.34;;;12.96;100.00
33404;BME280;19751;40.274;18.268;2023-02-28T06:27:20;101298.38;;;12.94;100.00
33404;BME280;19751;40.274;18.268;2023-02-28T06:29:45;101288.13;;;12.90;100.00
33404;BME280;19751;40.274;18.268;2023-02-28T06:32:11;101294.06;;;12.85;100.00
33404;BME280;19751;40.274;18.268;2023-02-28T06:34:36;101293.06;;;12.86;100.00
33404;BME280;19751;40.274;18.268;2023-02-28T06:37:02;101295.19;;;12.91;100.00
33404;BME280;19751;40.274;18.268;2023-02-28T06:39:29;101292.56;;;12.98;100.00
33404;BME280;19751;40.274;18.268;2023-02-28T06:41:55;101296.84;;;13.07;100.00
33404;BME280;19751;40.274;18.268;2023-02-28T06:44:21;101284.59;;;13.11;100.00
33404;BME280;19751;40.274;18.268;2023-02-28T06:46:47;101284.59;;;13.11;100.00
33404;BME280;19751;40.274;18.268;2023-02-28T06:49:12;101281.94;;;13.17;100.00
33404;BME280;19751;40.274;18.268;2023-02-28T06:51:40;101290.16;;;13.24;100.00
33404;BME280;19751;40.274;18.268;2023-02-28T06:54:07;101287.97;;;13.34;100.00
33404;BME280;19751;40.274;18.268;2023-02-28T06:56:35;101284.50;;;13.40;100.00
33404;BME280;19751;40.274;18.268;2023-02-28T06:59:01;101283.25;;;13.43;100.00
33404;BME280;19751;40.274;18.268;2023-02-28T07:01:27;101283.53;;;13.48;100.00
33404;BME280;19751;40.274;18.268;2023-02-28T07:03:54;101304.13;;;13.49;100.00
33404;BME280;19751;40.274;18.268;2023-02-28T07:06:21;101305.22;;;13.55;100.00
33404;BME280;19751;40.274;18.268;2023-02-28T07:08:48;101307.97;;;13.61;100.00
33404;BME280;19751;40.274;18.268;2023-02-28T07:11:14;101299.28;;;13.66;100.00
33404;BME280;19751;40.274;18.268;2023-02-28T07:13:39;101292.22;;;13.72;100.00
33404;BME280;19751;40.274;18.268;2023-02-28T07:16:07;101283.50;;;13.76;100.00
33404;BME280;19751;40.274;18.268;2023-02-28T07:18:35;101288.16;;;13.82;100.00
33404;BME280;19751;40.274;18.268;2023-02-28T07:21:06;101275.50;;;13.89;100.00
33404;BME280;19751;40.274;18.268;2023-02-28T07:23:32;101278.22;;;13.96;100.00
33404;BME280;19751;40.274;18.268;2023-02-28T07:25:59;101282.88;;;14.02;100.00
33404;BME280;19751;40.274;18.268;2023-02-28T07:28:25;101285.59;;;14.09;100.00
33404;BME280;19751;40.274;18.268;2023-02-28T07:30:50;101285.00;;;14.13;100.00
33404;BME280;19751;40.274;18.268;2023-02-28T07:33:16;101278.81;;;14.20;100.00
33404;BME280;19751;40.274;18.268;2023-02-28T07:35:42;101278.59;;;14.21;100.00
33404;BME280;19751;40.274;18.268;2023-02-28T07:38:07;101283.63;;;14.24;100.00
33404;BME280;19751;40.274;18.268;2023-02-28T07:40:36;101286.56;;;14.29;100.00
33404;BME280;19751;40.274;18.268;2023-02-28T07:43:03;101283.06;;;14.35;100.00
33404;BME280;19751;40.274;18.268;2023-02-28T07:45:29;101283.69;;;14.37;100.00
33404;BME280;19751;40.274;18.268;2023-02-28T07:47:55;101286.44;;;14.44;100.00
33404;BME280;19751;40.274;18.268;2023-02-28T07:50:21;101291.06;;;14.50;100.00
33404;BME280;19751;40.274;18.268;2023-02-28T07:52:47;101300.28;;;14.56;100.00
33404;BME280;19751;40.274;18.268;2023-02-28T07:55:12;101293.19;;;14.61;100.00
33404;BME280;19751;40.274;18.268;2023-02-28T07:57:39;101287.81;;;14.68;100.00
33404;BME280;19751;40.274;18.268;2023-02-28T08:00:07;101294.47;;;14.72;100.00
33404;BME280;19751;40.274;18.268;2023-02-28T08:02:35;101296.78;;;14.75;100.00
33404;BME280;19751;40.274;18.268;2023-02-28T08:05:01;101306.19;;;14.79;100.00
33404;BME280;19751;40.274;18.268;2023-02-28T08:07:26;101308.28;;;14.84;100.00
33404;BME280;19751;40.274;18.268;2023-02-28T08:09:52;101302.47;;;14.87;100.00
33404;BME280;19751;40.274;18.268;2023-02-28T08:12:18;101302.06;;;14.90;100.00
33404;BME280;19751;40.274;18.268;2023-02-28T08:14:43;101302.50;;;14.94;100.00
33404;BME280;19751;40.274;18.268;2023-02-28T08:17:10;101301.88;;;14.98;100.00
33404;BME280;19751;40.274;18.268;2023-02-28T08:19:35;101312.13;;;15.03;100.00
33404;BME280;19751;40.274;18.268;2023-02-28T08:22:01;101307.13;;;15.06;100.00
33404;BME280;19751;40.274;18.268;2023-02-28T08:24:26;101309.22;;;15.11;100.00
33404;BME280;19751;40.274;18.268;2023-02-28T08:26:52;101302.53;;;15.13;100.00
33404;BME280;19751;40.274;18.268;2023-02-28T08:29:17;101310.06;;;15.18;100.00
33404;BME280;19751;40.274;18.268;2023-02-28T08:31:43;101314.88;;;15.23;100.00
33404;BME280;19751;40.274;18.268;2023-02-28T08:34:11;101311.31;;;15.29;100.00
33404;BME280;19751;40.274;18.268;2023-02-28T08:36:37;101310.50;;;15.35;100.00
33404;BME280;19751;40.274;18.268;2023-02-28T08:39:03;101310.91;;;15.38;100.00
33404;BME280;19751;40.274;18.268;2023-02-28T08:41:29;101312.59;;;15.39;100.00
33404;BME280;19751;40.274;18.268;2023-02-28T08:43:55;101315.09;;;15.41;100.00
33404;BME280;19751;40.274;18.268;2023-02-28T08:46:22;101317.19;;;15.46;100.00
33404;BME280;19751;40.274;18.268;2023-02-28T08:48:52;101326.41;;;15.51;100.00
33404;BME280;19751;40.274;18.268;2023-02-28T08:51:18;101322.63;;;15.59;100.00
33404;BME280;19751;40.274;18.268;2023-02-28T08:53:52;101322.03;;;15.63;100.00
33404;BME280;19751;40.274;18.268;2023-02-28T08:56:18;101324.31;;;15.66;100.00
33404;BME280;19751;40.274;18.268;2023-02-28T08:58:45;101326.44;;;15.64;100.00
33404;BME280;19751;40.274;18.268;2023-02-28T09:01:14;101321.00;;;15.64;100.00
33404;BME280;19751;40.274;18.268;2023-02-28T09:03:40;101316.41;;;15.65;100.00
33404;BME280;19751;40.274;18.268;2023-02-28T09:06:07;101313.88;;;15.63;100.00
33404;BME280;19751;40.274;18.268;2023-02-28T09:08:33;101312.84;;;15.64;100.00
33404;BME280;19751;40.274;18.268;2023-02-28T09:10:59;101307.44;;;15.64;100.00
33404;BME280;19751;40.274;18.268;2023-02-28T09:13:26;101305.53;;;15.65;100.00
33404;BME280;19751;40.274;18.268;2023-02-28T09:15:52;101309.91;;;15.66;100.00
33404;BME280;19751;40.274;18.268;2023-02-28T09:18:17;101316.81;;;15.69;100.00
33404;BME280;19751;40.274;18.268;2023-02-28T09:20:43;101310.34;;;15.70;100.00
33404;BME280;19751;40.274;18.268;2023-02-28T09:23:10;101316.19;;;15.73;100.00
33404;BME280;19751;40.274;18.268;2023-02-28T09:25:36;101325.59;;;15.77;100.00
33404;BME280;19751;40.274;18.268;2023-02-28T09:28:03;101331.00;;;15.84;100.00
33404;BME280;19751;40.274;18.268;2023-02-28T09:30:29;101317.00;;;15.87;100.00
33404;BME280;19751;40.274;18.268;2023-02-28T09:32:54;101318.06;;;15.86;100.00
33404;BME280;19751;40.274;18.268;2023-02-28T09:35:21;101318.91;;;15.86;100.00
33404;BME280;19751;40.274;18.268;2023-02-28T09:37:48;101321.81;;;15.91;100.00
33404;BME280;19751;40.274;18.268;2023-02-28T09:40:15;101320.34;;;15.96;100.00
33404;BME280;19751;40.274;18.268;2023-02-28T09:42:45;101320.16;;;15.97;100.00
33404;BME280;19751;40.274;18.268;2023-02-28T09:45:35;101322.66;;;15.99;100.00
33404;BME280;19751;40.274;18.268;2023-02-28T09:48:06;101315.97;;;16.01;100.00
33404;BME280;19751;40.274;18.268;2023-02-28T09:50:40;101312.19;;;16.02;100.00
33404;BME280;19751;40.274;18.268;2023-02-28T09:53:34;101317.41;;;16.04;100.00
33404;BME280;19751;40.274;18.268;2023-02-28T09:58:40;101302.56;;;16.06;100.00
33404;BME280;19751;40.274;18.268;2023-02-28T10:03:47;101292.09;;;16.16;100.00
33404;BME280;19751;40.274;18.268;2023-02-28T10:06:17;101299.00;;;16.19;100.00
33404;BME280;19751;40.274;18.268;2023-02-28T10:11:27;101283.31;;;16.14;100.00
33404;BME280;19751;40.274;18.268;2023-02-28T10:21:53;101282.28;;;16.15;100.00
33404;BME280;19751;40.274;18.268;2023-02-28T10:24:42;101283.94;;;16.16;100.00
33404;BME280;19751;40.274;18.268;2023-02-28T10:27:21;101282.91;;;16.18;100.00
33404;BME280;19751;40.274;18.268;2023-02-28T10:29:49;101279.97;;;16.19;100.00
33404;BME280;19751;40.274;18.268;2023-02-28T10:35:00;101269.50;;;16.23;100.00
33404;BME280;19751;40.274;18.268;2023-02-28T10:37:30;101270.34;;;16.23;100.00
33404;BME280;19751;40.274;18.268;2023-02-28T10:39:57;101273.25;;;16.28;100.00
33404;BME280;19751;40.274;18.268;2023-02-28T10:42:25;101270.72;;;16.33;100.00
33404;BME280;19751;40.274;18.268;2023-02-28T10:45:16;101261.72;;;16.39;100.00
33404;BME280;19751;40.274;18.268;2023-02-28T10:48:06;101255.00;;;16.42;100.00
33404;BME280;19751;40.274;18.268;2023-02-28T10:50:52;101256.44;;;16.45;100.00
33404;BME280;19751;40.274;18.268;2023-02-28T11:03:47;101231.16;;;16.44;100.00
33404;BME280;19751;40.274;18.268;2023-02-28T11:06:17;101228.84;;;16.48;100.00
33404;BME280;19751;40.274;18.268;2023-02-28T11:08:49;101224.63;;;16.52;100.00
33404;BME280;19751;40.274;18.268;2023-02-28T11:11:17;101229.41;;;16.56;100.00
33404;BME280;19751;40.274;18.268;2023-02-28T11:13:44;101226.28;;;16.59;100.00
33404;BME280;19751;40.274;18.268;2023-02-28T11:16:12;101230.00;;;16.65;100.00
33404;BME280;19751;40.274;18.268;2023-02-28T11:18:48;101224.97;;;16.69;100.00
33404;BME280;19751;40.274;18.268;2023-02-28T11:21:29;101216.56;;;16.70;100.00
33404;BME280;19751;40.274;18.268;2023-02-28T11:24:02;101210.31;;;16.76;100.00
33404;BME280;19751;40.274;18.268;2023-02-28T11:26:44;101209.41;;;16.82;98.68
33404;BME280;19751;40.274;18.268;2023-02-28T11:29:19;101209.59;;;16.87;96.88
33404;BME280;19751;40.274;18.268;2023-02-28T11:34:38;101206.16;;;16.99;91.63
33404;BME280;19751;40.274;18.268;2023-02-28T11:37:09;101195.06;;;17.00;90.34
33404;BME280;19751;40.274;18.268;2023-02-28T11:39:36;101196.09;;;16.99;89.35
33404;BME280;19751;40.274;18.268;2023-02-28T11:56:33;101183.25;;;17.13;80.75
33404;BME280;19751;40.274;18.268;2023-02-28T12:07:08;101162.31;;;17.13;76.38
33404;BME280;19751;40.274;18.268;2023-02-28T12:23:21;101148.22;;;17.17;70.41
33404;BME280;19751;40.274;18.268;2023-02-28T12:26:07;101139.63;;;17.20;68.90
33404;BME280;19751;40.274;18.268;2023-02-28T12:28:42;101138.34;;;17.22;68.89
33404;BME280;19751;40.274;18.268;2023-02-28T12:31:16;101130.78;;;17.24;68.62
33404;BME280;19751;40.274;18.268;2023-02-28T12:33:52;101133.06;;;17.27;68.25
33404;BME280;19751;40.274;18.268;2023-02-28T12:36:20;101132.16;;;17.33;67.69
33404;BME280;19751;40.274;18.268;2023-02-28T12:38:55;101125.44;;;17.36;66.80
33404;BME280;19751;40.274;18.268;2023-02-28T12:41:42;101114.69;;;17.41;66.67
33404;BME280;19751;40.274;18.268;2023-02-28T12:44:18;101117.97;;;17.50;65.97
33404;BME280;19751;40.274;18.268;2023-02-28T12:46:49;101109.50;;;17.58;64.59
33404;BME280;19751;40.274;18.268;2023-02-28T12:49:22;101115.69;;;17.65;64.15
33404;BME280;19751;40.274;18.268;2023-02-28T12:51:50;101111.47;;;17.69;60.96
33404;BME280;19751;40.274;18.268;2023-02-28T12:54:24;101110.41;;;17.70;59.67
33404;BME280;19751;40.274;18.268;2023-02-28T13:02:18;101090.22;;;17.78;58.73
33404;BME280;19751;40.274;18.268;2023-02-28T13:10:23;101089.53;;;17.82;59.40
33404;BME280;19751;40.274;18.268;2023-02-28T13:12:51;101087.63;;;17.83;59.44
33404;BME280;19751;40.274;18.268;2023-02-28T13:15:21;101082.66;;;17.80;64.52
33404;BME280;19751;40.274;18.268;2023-02-28T13:17:51;101080.78;;;17.80;69.09
33404;BME280;19751;40.274;18.268;2023-02-28T13:20:37;101075.69;;;17.84;74.18
33404;BME280;19751;40.274;18.268;2023-02-28T13:23:39;101073.56;;;17.86;77.79
33404;BME280;19751;40.274;18.268;2023-02-28T13:26:05;101071.47;;;17.88;83.26
33404;BME280;19751;40.274;18.268;2023-02-28T13:31:19;101059.94;;;17.86;90.64
33404;BME280;19751;40.274;18.268;2023-02-28T13:36:29;101038.75;;;17.88;92.21
33404;BME280;19751;40.274;18.268;2023-02-28T13:38:58;101047.88;;;17.94;90.75
33404;BME280;19751;40.274;18.268;2023-02-28T13:46:24;101024.56;;;17.98;91.51
33404;BME280;19751;40.274;18.268;2023-02-28T13:48:50;101030.59;;;17.88;96.78
33404;BME280;19751;40.274;18.268;2023-02-28T13:54:52;101021.72;;;17.74;99.05
33404;BME280;19751;40.274;18.268;2023-02-28T14:05:18;101024.97;;;17.64;100.00
33404;BME280;19751;40.274;18.268;2023-02-28T14:07:56;101031.25;;;17.65;100.00
33404;BME280;19751;40.274;18.268;2023-02-28T14:10:32;101032.09;;;17.65;100.00
33404;BME280;19751;40.274;18.268;2023-02-28T14:17:56;101036.63;;;17.72;98.78
33404;BME280;19751;40.274;18.268;2023-02-28T14:20:27;101032.00;;;17.72;96.75
33404;BME280;19751;40.274;18.268;2023-02-28T14:29:08;101023.38;;;17.94;95.60
33404;BME280;19751;40.274;18.268;2023-02-28T14:34:39;101019.25;;;18.03;93.93
33404;BME280;19751;40.274;18.268;2023-02-28T14:37:16;101016.44;;;18.09;92.86
33404;BME280;19751;40.274;18.268;2023-02-28T14:39:44;101007.31;;;18.16;93.47
33404;BME280;19751;40.274;18.268;2023-02-28T14:42:39;101009.13;;;18.22;93.85
33404;BME280;19751;40.274;18.268;2023-02-28T14:45:20;101015.41;;;18.22;93.86
33404;BME280;19751;40.274;18.268;2023-02-28T14:47:46;101008.06;;;18.23;93.21
33404;BME280;19751;40.274;18.268;2023-02-28T14:50:20;101006.75;;;18.25;92.74
33404;BME280;19751;40.274;18.268;2023-02-28T14:52:46;100998.59;;;18.25;93.02
33404;BME280;19751;40.274;18.268;2023-02-28T14:55:16;101007.59;;;18.26;93.47
33404;BME280;19751;40.274;18.268;2023-02-28T14:57:52;101004.25;;;18.24;94.73
33404;BME280;19751;40.274;18.268;2023-02-28T15:00:35;101004.03;;;18.25;96.12
33404;BME280;19751;40.274;18.268;2023-02-28T15:03:24;101003.41;;;18.23;97.74
33404;BME280;19751;40.274;18.268;2023-02-28T15:05:56;100994.41;;;18.23;98.91
33404;BME280;19751;40.274;18.268;2023-02-28T15:08:23;100998.78;;;18.24;100.00
33404;BME280;19751;40.274;18.268;2023-02-28T15:11:11;101003.88;;;18.20;99.80
33404;BME280;19751;40.274;18.268;2023-02-28T15:13:49;101004.81;;;18.14;99.21
33404;BME280;19751;40.274;18.268;2023-02-28T15:16:21;101019.28;;;18.14;98.84